sensor_id;sensor_type;location;lat;lon;timestamp;pressure;altitude;pressure_sealevel;temperature;humidity
80945;BME280;70400;50.934;11.590;2023-11-22T00:00:36;100862.69;;;1.36;79.48
80945;BME280;70400;50.934;11.590;2023-11-22T00:01:27;100857.53;;;1.34;79.69
80945;BME280;70400;50.934;11.590;2023-11-22T00:02:18;100864.50;;;1.34;80.09
80945;BME280;70400;50.934;11.590;2023-11-22T00:03:12;100864.75;;;1.27;80.67
80945;BME280;70400;50.934;11.590;2023-11-22T00:04:03;100862.16;;;1.27;80.24
80945;BME280;70400;50.934;11.590;2023-11-22T00:04:55;100862.06;;;1.29;80.90
80945;BME280;70400;50.934;11.590;2023-11-22T00:05:46;100866.50;;;1.27;81.15
80945;BME280;70400;50.934;11.590;2023-11-22T00:06:37;100862.25;;;1.24;81.01
80945;BME280;70400;50.934;11.590;2023-11-22T00:07:28;100857.66;;;1.31;80.68
80945;BME280;70400;50.934;11.590;2023-11-22T00:08:20;100857.06;;;1.24;80.79
80945;BME280;70400;50.934;11.590;2023-11-22T00:09:11;100860.44;;;1.26;81.28
80945;BME280;70400;50.934;11.590;2023-11-22T00:10:02;100867.47;;;1.24;81.51
80945;BME280;70400;50.934;11.590;2023-11-22T00:10:55;100864.81;;;1.26;81.59
80945;BME280;70400;50.934;11.590;2023-11-22T00:11:46;100862.47;;;1.20;81.88
80945;BME280;70400;50.934;11.590;2023-11-22T00:12:37;100866.69;;;1.22;82.16
80945;BME280;70400;50.934;11.590;2023-11-22T00:13:29;100861.72;;;1.16;82.42
80945;BME280;70400;50.934;11.590;2023-11-22T00:14:20;100865.91;;;1.20;82.20
80945;BME280;70400;50.934;11.590;2023-11-22T00:15:12;100867.75;;;1.17;82.08
80945;BME280;70400;50.934;11.590;2023-11-22T00:16:09;100867.66;;;1.20;82.48
80945;BME280;70400;50.934;11.590;2023-11-22T00:17:00;100857.47;;;1.15;82.49
80945;BME280;70400;50.934;11.590;2023-11-22T00:17:52;100871.22;;;1.17;82.38
80945;BME280;70400;50.934;11.590;2023-11-22T00:18:44;100861.69;;;1.18;82.71
80945;BME280;70400;50.934;11.590;2023-11-22T00:19:35;100869.47;;;1.18;82.81
80945;BME280;70400;50.934;11.590;2023-11-22T00:20:26;100872.97;;;1.17;82.91
80945;BME280;70400;50.934;11.590;2023-11-22T00:21:17;100874.72;;;1.16;83.63
80945;BME280;70400;50.934;11.590;2023-11-22T00:22:13;100870.44;;;1.15;83.38
80945;BME280;70400;50.934;11.590;2023-11-22T00:23:05;100874.91;;;1.12;83.84
80945;BME280;70400;50.934;11.590;2023-11-22T00:23:56;100861.91;;;1.12;83.90
80945;BME280;70400;50.934;11.590;2023-11-22T00:24:47;100862.69;;;1.14;84.21
80945;BME280;70400;50.934;11.590;2023-11-22T00:25:40;100859.53;;;1.07;84.21
80945;BME280;70400;50.934;11.590;2023-11-22T00:26:31;100863.66;;;1.11;84.10
80945;BME280;70400;50.934;11.590;2023-11-22T00:27:23;100853.47;;;1.06;84.22
80945;BME280;70400;50.934;11.590;2023-11-22T00:28:14;100854.13;;;1.12;84.10
80945;BME280;70400;50.934;11.590;2023-11-22T00:29:04;100862.56;;;1.17;83.83
80945;BME280;70400;50.934;11.590;2023-11-22T00:29:56;100856.66;;;1.13;83.26
80945;BME280;70400;50.934;11.590;2023-11-22T00:30:47;100854.31;;;1.07;83.10
80945;BME280;70400;50.934;11.590;2023-11-22T00:31:39;100858.84;;;1.02;83.68
80945;BME280;70400;50.934;11.590;2023-11-22T00:32:30;100859.69;;;1.02;84.00
80945;BME280;70400;50.934;11.590;2023-11-22T00:33:21;100860.53;;;1.03;83.18
80945;BME280;70400;50.934;11.590;2023-11-22T00:34:13;100855.28;;;1.04;83.02
80945;BME280;70400;50.934;11.590;2023-11-22T00:35:08;100861.38;;;1.03;83.56
80945;BME280;70400;50.934;11.590;2023-11-22T00:35:59;100859.63;;;1.04;83.59
80945;BME280;70400;50.934;11.590;2023-11-22T00:36:51;100860.50;;;1.04;83.98
80945;BME280;70400;50.934;11.590;2023-11-22T00:37:42;100863.00;;;1.06;83.16
80945;BME280;70400;50.934;11.590;2023-11-22T00:38:32;100865.56;;;1.07;82.95
80945;BME280;70400;50.934;11.590;2023-11-22T00:39:26;100875.09;;;1.07;82.11
80945;BME280;70400;50.934;11.590;2023-11-22T00:40:17;100870.94;;;1.03;82.38
80945;BME280;70400;50.934;11.590;2023-11-22T00:41:08;100874.34;;;1.03;82.47
80945;BME280;70400;50.934;11.590;2023-11-22T00:42:00;100874.31;;;1.05;82.33
80945;BME280;70400;50.934;11.590;2023-11-22T00:42:53;100879.56;;;1.03;81.55
80945;BME280;70400;50.934;11.590;2023-11-22T00:43:44;100878.00;;;0.99;81.75
80945;BME280;70400;50.934;11.590;2023-11-22T00:44:35;100878.19;;;0.95;81.62
80945;BME280;70400;50.934;11.590;2023-11-22T00:45:27;100880.69;;;0.96;81.84
80945;BME280;70400;50.934;11.590;2023-11-22T00:46:18;100886.63;;;1.00;82.45
80945;BME280;70400;50.934;11.590;2023-11-22T00:47:08;100883.25;;;0.98;82.06
80945;BME280;70400;50.934;11.590;2023-11-22T00:47:59;100885.84;;;0.98;81.70
80945;BME280;70400;50.934;11.590;2023-11-22T00:48:50;100889.41;;;0.95;81.91
80945;BME280;70400;50.934;11.590;2023-11-22T00:49:41;100899.91;;;0.92;81.60
80945;BME280;70400;50.934;11.590;2023-11-22T00:50:33;100899.00;;;0.93;81.91
80945;BME280;70400;50.934;11.590;2023-11-22T00:51:24;100898.34;;;0.88;81.89
80945;BME280;70400;50.934;11.590;2023-11-22T00:52:15;100899.13;;;0.90;82.22
80945;BME280;70400;50.934;11.590;2023-11-22T00:53:06;100895.69;;;0.90;82.03
80945;BME280;70400;50.934;11.590;2023-11-22T00:53:58;100902.84;;;0.83;81.81
80945;BME280;70400;50.934;11.590;2023-11-22T00:54:49;100909.94;;;0.79;81.59
80945;BME280;70400;50.934;11.590;2023-11-22T00:55:40;100909.00;;;0.80;82.13
80945;BME280;70400;50.934;11.590;2023-11-22T00:56:35;100903.69;;;0.83;82.30
80945;BME280;70400;50.934;11.590;2023-11-22T00:57:26;100905.41;;;0.84;82.31
80945;BME280;70400;50.934;11.590;2023-11-22T00:58:17;100908.03;;;0.83;81.69
80945;BME280;70400;50.934;11.590;2023-11-22T00:59:08;100906.53;;;0.77;82.14
80945;BME280;70400;50.934;11.590;2023-11-22T00:59:59;100917.63;;;0.81;82.76
80945;BME280;70400;50.934;11.590;2023-11-22T01:00:50;100911.78;;;0.76;82.13
80945;BME280;70400;50.934;11.590;2023-11-22T01:01:41;100910.09;;;0.75;82.07
80945;BME280;70400;50.934;11.590;2023-11-22T01:02:31;100912.59;;;0.76;82.21
80945;BME280;70400;50.934;11.590;2023-11-22T01:03:23;100918.72;;;0.75;81.30
80945;BME280;70400;50.934;11.590;2023-11-22T01:04:14;100918.84;;;0.72;81.88
80945;BME280;70400;50.934;11.590;2023-11-22T01:05:07;100920.81;;;0.65;82.20
80945;BME280;70400;50.934;11.590;2023-11-22T01:06:02;100930.31;;;0.67;82.36
80945;BME280;70400;50.934;11.590;2023-11-22T01:06:53;100919.97;;;0.65;82.80
80945;BME280;70400;50.934;11.590;2023-11-22T01:07:44;100926.91;;;0.64;82.70
80945;BME280;70400;50.934;11.590;2023-11-22T01:08:36;100928.38;;;0.72;82.15
80945;BME280;70400;50.934;11.590;2023-11-22T01:09:27;100937.19;;;0.68;81.43
80945;BME280;70400;50.934;11.590;2023-11-22T01:10:19;100926.06;;;0.64;81.80
80945;BME280;70400;50.934;11.590;2023-11-22T01:11:10;100931.31;;;0.62;81.75
80945;BME280;70400;50.934;11.590;2023-11-22T01:12:01;100928.66;;;0.64;82.50
80945;BME280;70400;50.934;11.590;2023-11-22T01:12:52;100934.75;;;0.63;82.32
80945;BME280;70400;50.934;11.590;2023-11-22T01:13:43;100929.50;;;0.64;82.18
80945;BME280;70400;50.934;11.590;2023-11-22T01:14:34;100931.31;;;0.62;82.10
80945;BME280;70400;50.934;11.590;2023-11-22T01:15:25;100933.00;;;0.63;81.63
80945;BME280;70400;50.934;11.590;2023-11-22T01:16:16;100938.09;;;0.67;81.82
80945;BME280;70400;50.934;11.590;2023-11-22T01:17:07;100930.41;;;0.63;82.14
80945;BME280;70400;50.934;11.590;2023-11-22T01:18:00;100934.81;;;0.61;81.48
80945;BME280;70400;50.934;11.590;2023-11-22T01:18:51;100935.78;;;0.59;82.14
80945;BME280;70400;50.934;11.590;2023-11-22T01:19:43;100936.47;;;0.64;82.16
80945;BME280;70400;50.934;11.590;2023-11-22T01:20:34;100933.84;;;0.64;81.97
80945;BME280;70400;50.934;11.590;2023-11-22T01:21:28;100934.97;;;0.57;81.96
80945;BME280;70400;50.934;11.590;2023-11-22T01:22:19;100932.22;;;0.61;81.61
80945;BME280;70400;50.934;11.590;2023-11-22T01:23:10;100939.09;;;0.62;82.17
80945;BME280;70400;50.934;11.590;2023-11-22T01:24:01;100930.63;;;0.57;82.33
80945;BME280;70400;50.934;11.590;2023-11-22T01:24:53;100934.19;;;0.55;82.33
80945;BME280;70400;50.934;11.590;2023-11-22T01:25:44;100933.28;;;0.56;82.51
80945;BME280;70400;50.934;11.590;2023-11-22T01:26:35;100933.22;;;0.57;81.92
80945;BME280;70400;50.934;11.590;2023-11-22T01:27:29;100939.06;;;0.64;81.78
80945;BME280;70400;50.934;11.590;2023-11-22T01:28:20;100939.09;;;0.62;82.04
80945;BME280;70400;50.934;11.590;2023-11-22T01:29:11;100935.53;;;0.65;81.71
80945;BME280;70400;50.934;11.590;2023-11-22T01:30:03;100940.09;;;0.58;82.15
80945;BME280;70400;50.934;11.590;2023-11-22T01:30:54;100940.97;;;0.59;82.45
80945;BME280;70400;50.934;11.590;2023-11-22T01:31:45;100948.63;;;0.62;82.55
80945;BME280;70400;50.934;11.590;2023-11-22T01:32:36;100950.13;;;0.69;82.17
80945;BME280;70400;50.934;11.590;2023-11-22T01:33:27;100952.63;;;0.71;82.13
80945;BME280;70400;50.934;11.590;2023-11-22T01:34:18;100954.44;;;0.69;81.80
80945;BME280;70400;50.934;11.590;2023-11-22T01:35:09;100959.03;;;0.62;81.49
80945;BME280;70400;50.934;11.590;2023-11-22T01:36:00;100950.47;;;0.58;81.72
80945;BME280;70400;50.934;11.590;2023-11-22T01:36:50;100947.88;;;0.58;82.16
80945;BME280;70400;50.934;11.590;2023-11-22T01:37:42;100954.00;;;0.57;82.44
80945;BME280;70400;50.934;11.590;2023-11-22T01:38:33;100948.63;;;0.62;82.13
80945;BME280;70400;50.934;11.590;2023-11-22T01:39:24;100949.63;;;0.58;81.72
80945;BME280;70400;50.934;11.590;2023-11-22T01:40:14;100953.16;;;0.57;82.12
80945;BME280;70400;50.934;11.590;2023-11-22T01:41:05;100956.59;;;0.57;82.28
80945;BME280;70400;50.934;11.590;2023-11-22T01:41:56;100957.66;;;0.52;82.36
80945;BME280;70400;50.934;11.590;2023-11-22T01:42:47;100959.41;;;0.51;82.00
80945;BME280;70400;50.934;11.590;2023-11-22T01:43:39;100961.22;;;0.49;82.16
80945;BME280;70400;50.934;11.590;2023-11-22T01:44:32;100963.56;;;0.55;82.23
80945;BME280;70400;50.934;11.590;2023-11-22T01:45:23;100964.59;;;0.51;81.79
80945;BME280;70400;50.934;11.590;2023-11-22T01:46:22;100968.25;;;0.46;82.46
80945;BME280;70400;50.934;11.590;2023-11-22T01:47:17;100971.47;;;0.52;82.02
80945;BME280;70400;50.934;11.590;2023-11-22T01:48:10;100974.06;;;0.52;82.38
80945;BME280;70400;50.934;11.590;2023-11-22T01:49:01;100972.28;;;0.54;82.07
80945;BME280;70400;50.934;11.590;2023-11-22T01:49:52;100971.69;;;0.46;82.15
80945;BME280;70400;50.934;11.590;2023-11-22T01:50:44;100970.94;;;0.42;82.46
80945;BME280;70400;50.934;11.590;2023-11-22T01:51:36;100977.72;;;0.47;82.26
80945;BME280;70400;50.934;11.590;2023-11-22T01:52:27;100971.59;;;0.49;82.06
80945;BME280;70400;50.934;11.590;2023-11-22T01:53:19;100975.97;;;0.47;82.15
80945;BME280;70400;50.934;11.590;2023-11-22T01:54:12;100979.50;;;0.46;82.08
80945;BME280;70400;50.934;11.590;2023-11-22T01:55:03;100982.13;;;0.45;81.84
80945;BME280;70400;50.934;11.590;2023-11-22T01:55:55;100975.53;;;0.36;81.95
80945;BME280;70400;50.934;11.590;2023-11-22T01:56:48;100982.50;;;0.34;81.98
80945;BME280;70400;50.934;11.590;2023-11-22T01:57:39;100979.00;;;0.35;82.16
80945;BME280;70400;50.934;11.590;2023-11-22T01:58:30;100981.66;;;0.33;81.91
80945;BME280;70400;50.934;11.590;2023-11-22T01:59:22;100975.84;;;0.27;82.13
80945;BME280;70400;50.934;11.590;2023-11-22T02:00:13;100974.03;;;0.29;82.23
80945;BME280;70400;50.934;11.590;2023-11-22T02:01:06;100980.19;;;0.26;82.38
80945;BME280;70400;50.934;11.590;2023-11-22T02:01:57;100973.38;;;0.22;82.25
80945;BME280;70400;50.934;11.590;2023-11-22T02:02:48;100976.91;;;0.21;82.70
80945;BME280;70400;50.934;11.590;2023-11-22T02:03:40;100986.44;;;0.20;82.09
80945;BME280;70400;50.934;11.590;2023-11-22T02:04:31;100983.03;;;0.18;81.88
80945;BME280;70400;50.934;11.590;2023-11-22T02:05:22;100986.47;;;0.19;82.17
80945;BME280;70400;50.934;11.590;2023-11-22T02:06:15;100987.38;;;0.18;81.81
80945;BME280;70400;50.934;11.590;2023-11-22T02:07:10;100991.53;;;0.22;82.06
80945;BME280;70400;50.934;11.590;2023-11-22T02:08:01;100994.25;;;0.19;82.01
80945;BME280;70400;50.934;11.590;2023-11-22T02:08:52;100990.72;;;0.21;82.13
80945;BME280;70400;50.934;11.590;2023-11-22T02:09:43;100990.72;;;0.21;82.15
80945;BME280;70400;50.934;11.590;2023-11-22T02:10:37;100987.88;;;0.28;81.58
80945;BME280;70400;50.934;11.590;2023-11-22T02:11:28;100987.97;;;0.26;81.25
80945;BME280;70400;50.934;11.590;2023-11-22T02:12:19;100986.34;;;0.22;81.63
80945;BME280;70400;50.934;11.590;2023-11-22T02:13:10;100987.28;;;0.21;81.78
80945;BME280;70400;50.934;11.590;2023-11-22T02:14:03;100989.78;;;0.22;82.08
80945;BME280;70400;50.934;11.590;2023-11-22T02:14:54;100977.00;;;0.18;81.96
80945;BME280;70400;50.934;11.590;2023-11-22T02:15:44;100982.94;;;0.21;80.77
80945;BME280;70400;50.934;11.590;2023-11-22T02:16:38;100979.53;;;0.19;81.36
80945;BME280;70400;50.934;11.590;2023-11-22T02:17:30;100979.50;;;0.21;81.66
80945;BME280;70400;50.934;11.590;2023-11-22T02:18:22;100993.25;;;0.23;80.81
80945;BME280;70400;50.934;11.590;2023-11-22T02:19:15;100986.44;;;0.20;80.54
80945;BME280;70400;50.934;11.590;2023-11-22T02:20:07;100993.41;;;0.18;80.96
80945;BME280;70400;50.934;11.590;2023-11-22T02:21:01;100989.91;;;0.19;81.35
80945;BME280;70400;50.934;11.590;2023-11-22T02:21:52;100996.81;;;0.20;81.28
80945;BME280;70400;50.934;11.590;2023-11-22T02:22:44;100990.75;;;0.20;81.14
80945;BME280;70400;50.934;11.590;2023-11-22T02:23:35;100994.25;;;0.19;81.46
80945;BME280;70400;50.934;11.590;2023-11-22T02:24:26;100984.84;;;0.16;81.22
80945;BME280;70400;50.934;11.590;2023-11-22T02:25:17;100992.50;;;0.19;81.47
80945;BME280;70400;50.934;11.590;2023-11-22T02:26:08;100991.63;;;0.20;81.10
80945;BME280;70400;50.934;11.590;2023-11-22T02:27:00;100988.16;;;0.20;81.02
80945;BME280;70400;50.934;11.590;2023-11-22T02:27:51;100996.97;;;0.16;81.27
80945;BME280;70400;50.934;11.590;2023-11-22T02:28:42;100992.50;;;0.19;81.37
80945;BME280;70400;50.934;11.590;2023-11-22T02:29:33;100992.56;;;0.18;80.68
80945;BME280;70400;50.934;11.590;2023-11-22T02:30:24;100989.88;;;0.21;80.77
80945;BME280;70400;50.934;11.590;2023-11-22T02:31:16;100999.19;;;0.27;80.51
80945;BME280;70400;50.934;11.590;2023-11-22T02:32:08;101007.81;;;0.27;79.79
80945;BME280;70400;50.934;11.590;2023-11-22T02:32:59;101000.09;;;0.26;80.09
80945;BME280;70400;50.934;11.590;2023-11-22T02:33:49;101007.09;;;0.22;80.30
80945;BME280;70400;50.934;11.590;2023-11-22T02:34:42;101004.50;;;0.22;79.67
80945;BME280;70400;50.934;11.590;2023-11-22T02:35:33;101003.91;;;0.15;79.82
80945;BME280;70400;50.934;11.590;2023-11-22T02:36:24;101007.22;;;0.19;80.24
80945;BME280;70400;50.934;11.590;2023-11-22T02:37:15;101005.47;;;0.19;79.70
80945;BME280;70400;50.934;11.590;2023-11-22T02:38:07;101010.88;;;0.13;79.86
80945;BME280;70400;50.934;11.590;2023-11-22T02:38:58;101008.19;;;0.16;79.67
80945;BME280;70400;50.934;11.590;2023-11-22T02:41:01;101000.97;;;0.25;80.26
80945;BME280;70400;50.934;11.590;2023-11-22T02:41:53;101007.22;;;0.19;79.97
80945;BME280;70400;50.934;11.590;2023-11-22T02:42:45;101006.31;;;0.20;80.49
80945;BME280;70400;50.934;11.590;2023-11-22T02:43:35;101005.56;;;0.16;79.87
80945;BME280;70400;50.934;11.590;2023-11-22T02:44:26;101005.47;;;0.19;79.75
80945;BME280;70400;50.934;11.590;2023-11-22T02:45:19;101006.41;;;0.17;79.68
80945;BME280;70400;50.934;11.590;2023-11-22T02:46:10;101008.28;;;0.13;79.53
80945;BME280;70400;50.934;11.590;2023-11-22T02:47:01;101004.78;;;0.14;80.14
80945;BME280;70400;50.934;11.590;2023-11-22T02:47:52;101008.13;;;0.18;79.32
80945;BME280;70400;50.934;11.590;2023-11-22T02:48:43;101015.00;;;0.19;79.55
80945;BME280;70400;50.934;11.590;2023-11-22T02:49:35;101014.97;;;0.20;79.54
80945;BME280;70400;50.934;11.590;2023-11-22T02:50:27;101013.34;;;0.16;79.24
80945;BME280;70400;50.934;11.590;2023-11-22T02:51:18;101010.91;;;0.12;79.25
80945;BME280;70400;50.934;11.590;2023-11-22T02:52:08;101005.56;;;0.16;78.84
80945;BME280;70400;50.934;11.590;2023-11-22T02:53:03;101011.75;;;0.12;78.75
80945;BME280;70400;50.934;11.590;2023-11-22T02:53:54;101010.19;;;0.08;79.76
80945;BME280;70400;50.934;11.590;2023-11-22T02:54:45;101005.88;;;0.07;79.75
80945;BME280;70400;50.934;11.590;2023-11-22T02:55:36;101016.16;;;0.10;79.54
80945;BME280;70400;50.934;11.590;2023-11-22T02:56:28;101017.00;;;0.11;79.78
80945;BME280;70400;50.934;11.590;2023-11-22T02:57:18;101011.69;;;0.15;79.84
80945;BME280;70400;50.934;11.590;2023-11-22T02:58:09;101017.63;;;0.17;78.96
80945;BME280;70400;50.934;11.590;2023-11-22T02:59:03;101027.31;;;0.12;79.33
80945;BME280;70400;50.934;11.590;2023-11-22T02:59:54;101024.09;;;0.06;79.05
80945;BME280;70400;50.934;11.590;2023-11-22T03:00:44;101017.16;;;0.06;79.15
80945;BME280;70400;50.934;11.590;2023-11-22T03:01:35;101021.41;;;0.09;79.11
80945;BME280;70400;50.934;11.590;2023-11-22T03:02:26;101026.63;;;0.07;79.30
80945;BME280;70400;50.934;11.590;2023-11-22T03:03:17;101033.56;;;0.07;79.39
80945;BME280;70400;50.934;11.590;2023-11-22T03:04:08;101032.69;;;0.08;79.59
80945;BME280;70400;50.934;11.590;2023-11-22T03:05:00;101029.97;;;0.11;79.25
80945;BME280;70400;50.934;11.590;2023-11-22T03:05:51;101028.22;;;0.11;78.98
80945;BME280;70400;50.934;11.590;2023-11-22T03:06:42;101034.25;;;0.12;79.31
80945;BME280;70400;50.934;11.590;2023-11-22T03:07:33;101034.16;;;0.15;79.15
80945;BME280;70400;50.934;11.590;2023-11-22T03:08:25;101040.28;;;0.12;79.09
80945;BME280;70400;50.934;11.590;2023-11-22T03:09:16;101043.94;;;0.07;79.39
80945;BME280;70400;50.934;11.590;2023-11-22T03:10:07;101040.59;;;0.03;79.33
80945;BME280;70400;50.934;11.590;2023-11-22T03:10:58;101034.50;;;0.04;79.32
80945;BME280;70400;50.934;11.590;2023-11-22T03:11:50;101041.41;;;0.05;79.66
80945;BME280;70400;50.934;11.590;2023-11-22T03:12:42;101048.31;;;0.05;80.25
80945;BME280;70400;50.934;11.590;2023-11-22T03:13:33;101037.78;;;0.09;80.03
80945;BME280;70400;50.934;11.590;2023-11-22T03:14:24;101041.09;;;0.14;79.89
80945;BME280;70400;50.934;11.590;2023-11-22T03:15:15;101048.88;;;0.14;79.78
80945;BME280;70400;50.934;11.590;2023-11-22T03:16:05;101048.00;;;0.15;79.75
80945;BME280;70400;50.934;11.590;2023-11-22T03:16:56;101043.91;;;0.08;79.76
80945;BME280;70400;50.934;11.590;2023-11-22T03:17:48;101058.63;;;0.08;80.25
80945;BME280;70400;50.934;11.590;2023-11-22T03:18:39;101053.47;;;0.06;79.91
80945;BME280;70400;50.934;11.590;2023-11-22T03:19:30;101049.22;;;0.04;79.95
80945;BME280;70400;50.934;11.590;2023-11-22T03:20:21;101048.94;;;0.13;79.63
80945;BME280;70400;50.934;11.590;2023-11-22T03:21:12;101053.31;;;0.11;79.45
80945;BME280;70400;50.934;11.590;2023-11-22T03:22:03;101054.97;;;0.13;79.21
80945;BME280;70400;50.934;11.590;2023-11-22T03:22:54;101057.66;;;0.10;79.13
80945;BME280;70400;50.934;11.590;2023-11-22T03:23:46;101059.34;;;0.11;79.22
80945;BME280;70400;50.934;11.590;2023-11-22T03:24:38;101054.13;;;0.13;79.31
80945;BME280;70400;50.934;11.590;2023-11-22T03:25:29;101054.91;;;0.15;79.47
80945;BME280;70400;50.934;11.590;2023-11-22T03:26:20;101050.59;;;0.15;79.17
80945;BME280;70400;50.934;11.590;2023-11-22T03:27:11;101061.94;;;0.11;79.29
80945;BME280;70400;50.934;11.590;2023-11-22T03:28:02;101051.59;;;0.10;79.55
80945;BME280;70400;50.934;11.590;2023-11-22T03:28:53;101068.72;;;0.15;79.29
80945;BME280;70400;50.934;11.590;2023-11-22T03:29:44;101069.56;;;0.16;79.55
80945;BME280;70400;50.934;11.590;2023-11-22T03:30:35;101069.56;;;0.16;79.52
80945;BME280;70400;50.934;11.590;2023-11-22T03:31:27;101080.91;;;0.13;78.52
80945;BME280;70400;50.934;11.590;2023-11-22T03:32:18;101080.09;;;0.11;79.13
80945;BME280;70400;50.934;11.590;2023-11-22T03:33:09;101073.13;;;0.13;79.03
80945;BME280;70400;50.934;11.590;2023-11-22T03:34:00;101074.00;;;0.12;78.74
80945;BME280;70400;50.934;11.590;2023-11-22T03:34:51;101080.00;;;0.14;79.18
80945;BME280;70400;50.934;11.590;2023-11-22T03:35:43;101085.19;;;0.14;79.42
80945;BME280;70400;50.934;11.590;2023-11-22T03:36:34;101081.78;;;0.12;79.12
80945;BME280;70400;50.934;11.590;2023-11-22T03:37:25;101087.78;;;0.14;78.90
80945;BME280;70400;50.934;11.590;2023-11-22T03:38:16;101084.28;;;0.15;78.78
80945;BME280;70400;50.934;11.590;2023-11-22T03:39:07;101083.38;;;0.16;78.91
80945;BME280;70400;50.934;11.590;2023-11-22T03:39:58;101085.25;;;0.13;79.18
80945;BME280;70400;50.934;11.590;2023-11-22T03:40:49;101091.16;;;0.16;79.31
80945;BME280;70400;50.934;11.590;2023-11-22T03:41:40;101092.97;;;0.14;79.45
80945;BME280;70400;50.934;11.590;2023-11-22T03:42:32;101090.38;;;0.14;79.78
80945;BME280;70400;50.934;11.590;2023-11-22T03:43:22;101092.00;;;0.17;79.57
80945;BME280;70400;50.934;11.590;2023-11-22T03:44:16;101095.56;;;0.14;79.82
80945;BME280;70400;50.934;11.590;2023-11-22T03:45:08;101092.91;;;0.16;79.93
80945;BME280;70400;50.934;11.590;2023-11-22T03:46:00;101091.13;;;0.18;79.69
80945;BME280;70400;50.934;11.590;2023-11-22T03:46:50;101089.56;;;0.12;79.04
80945;BME280;70400;50.934;11.590;2023-11-22T03:47:42;101098.25;;;0.11;78.56
80945;BME280;70400;50.934;11.590;2023-11-22T03:48:33;101082.81;;;0.07;78.95
80945;BME280;70400;50.934;11.590;2023-11-22T03:49:24;101075.06;;;0.07;79.32
80945;BME280;70400;50.934;11.590;2023-11-22T03:50:15;101087.91;;;0.10;79.14
80945;BME280;70400;50.934;11.590;2023-11-22T03:51:07;101086.13;;;0.12;79.00
80945;BME280;70400;50.934;11.590;2023-11-22T03:51:58;101086.19;;;0.10;79.16
80945;BME280;70400;50.934;11.590;2023-11-22T03:52:48;101087.84;;;0.13;79.01
80945;BME280;70400;50.934;11.590;2023-11-22T03:53:39;101088.56;;;0.16;78.98
80945;BME280;70400;50.934;11.590;2023-11-22T03:54:30;101093.03;;;0.13;79.21
80945;BME280;70400;50.934;11.590;2023-11-22T03:55:23;101106.94;;;0.10;78.61
80945;BME280;70400;50.934;11.590;2023-11-22T03:56:13;101101.94;;;0.04;79.16
80945;BME280;70400;50.934;11.590;2023-11-22T03:57:05;101102.63;;;0.09;79.28
80945;BME280;70400;50.934;11.590;2023-11-22T03:57:55;101107.81;;;0.09;79.34
80945;BME280;70400;50.934;11.590;2023-11-22T03:58:49;101104.25;;;0.13;78.52
80945;BME280;70400;50.934;11.590;2023-11-22T03:59:40;101100.03;;;0.09;78.45
80945;BME280;70400;50.934;11.590;2023-11-22T04:00:32;101103.56;;;0.07;79.23
80945;BME280;70400;50.934;11.590;2023-11-22T04:01:23;101103.41;;;0.13;78.17
80945;BME280;70400;50.934;11.590;2023-11-22T04:02:13;101106.06;;;0.10;77.74
80945;BME280;70400;50.934;11.590;2023-11-22T04:03:04;101103.53;;;0.08;78.50
80945;BME280;70400;50.934;11.590;2023-11-22T04:03:55;101104.34;;;0.10;78.17
80945;BME280;70400;50.934;11.590;2023-11-22T04:04:46;101112.97;;;0.11;77.84
80945;BME280;70400;50.934;11.590;2023-11-22T04:05:37;101108.75;;;0.07;77.42
80945;BME280;70400;50.934;11.590;2023-11-22T04:06:28;101107.00;;;0.07;77.94
80945;BME280;70400;50.934;11.590;2023-11-22T04:07:19;101108.06;;;0.02;77.93
80945;BME280;70400;50.934;11.590;2023-11-22T04:08:10;101106.28;;;0.04;78.03
80945;BME280;70400;50.934;11.590;2023-11-22T04:09:02;101109.59;;;0.07;78.09
80945;BME280;70400;50.934;11.590;2023-11-22T04:09:53;101110.63;;;0.03;78.25
80945;BME280;70400;50.934;11.590;2023-11-22T04:10:44;101108.06;;;0.02;78.23
80945;BME280;70400;50.934;11.590;2023-11-22T04:11:36;101121.03;;;0.02;78.41
80945;BME280;70400;50.934;11.590;2023-11-22T04:12:27;101117.63;;;-0.01;78.39
80945;BME280;70400;50.934;11.590;2023-11-22T04:13:18;101122.78;;;0.01;78.25
80945;BME280;70400;50.934;11.590;2023-11-22T04:14:09;101126.31;;;-0.02;78.16
80945;BME280;70400;50.934;11.590;2023-11-22T04:15:00;101124.47;;;0.02;78.06
80945;BME280;70400;50.934;11.590;2023-11-22T04:15:52;101127.03;;;0.04;78.49
80945;BME280;70400;50.934;11.590;2023-11-22T04:16:43;101128.69;;;0.05;78.34
80945;BME280;70400;50.934;11.590;2023-11-22T04:17:35;101126.03;;;0.08;78.54
80945;BME280;70400;50.934;11.590;2023-11-22T04:18:28;101127.75;;;0.07;78.23
80945;BME280;70400;50.934;11.590;2023-11-22T04:19:19;101138.19;;;0.06;77.95
80945;BME280;70400;50.934;11.590;2023-11-22T04:20:11;101139.03;;;0.06;78.64
80945;BME280;70400;50.934;11.590;2023-11-22T04:21:05;101135.72;;;0.03;78.19
80945;BME280;70400;50.934;11.590;2023-11-22T04:21:56;101139.06;;;0.05;77.71
80945;BME280;70400;50.934;11.590;2023-11-22T04:22:47;101133.81;;;0.08;77.53
80945;BME280;70400;50.934;11.590;2023-11-22T04:23:38;101137.34;;;0.05;78.12
80945;BME280;70400;50.934;11.590;2023-11-22T04:24:29;101130.44;;;0.04;77.59
80945;BME280;70400;50.934;11.590;2023-11-22T04:25:20;101142.69;;;0.01;78.05
80945;BME280;70400;50.934;11.590;2023-11-22T04:26:11;101133.03;;;0.04;77.80
80945;BME280;70400;50.934;11.590;2023-11-22T04:27:02;101135.53;;;0.07;77.56
80945;BME280;70400;50.934;11.590;2023-11-22T04:27:53;101152.91;;;0.05;77.44
80945;BME280;70400;50.934;11.590;2023-11-22T04:28:44;101147.91;;;-0.01;77.07
80945;BME280;70400;50.934;11.590;2023-11-22T04:29:35;101145.31;;;-0.01;77.38
80945;BME280;70400;50.934;11.590;2023-11-22T04:30:26;101135.91;;;-0.05;77.46